createdAt,value
2018-12-15T00:00:46.099Z,1.20
2018-12-15T00:05:48.649Z,1.10
2018-12-15T00:10:51.122Z,1.10
2018-12-15T00:15:53.673Z,1.00
2018-12-15T00:20:56.142Z,1.00
2018-12-15T00:25:58.705Z,1.10
2018-12-15T00:31:01.206Z,1.20
2018-12-15T00:36:03.789Z,1.00
2018-12-15T00:41:06.285Z,1.10
2018-12-15T00:46:08.777Z,1.20
2018-12-15T00:51:11.274Z,1.00
2018-12-15T00:56:13.762Z,1.20
2018-12-15T01:01:16.229Z,1.20
2018-12-15T01:06:18.761Z,1.20
2018-12-15T01:11:21.265Z,1.00
2018-12-15T01:16:23.841Z,0.90
2018-12-15T01:21:27.154Z,0.90
2018-12-15T01:26:29.850Z,0.90
2018-12-15T01:31:32.545Z,1.00
2018-12-15T01:36:35.252Z,0.90
2018-12-15T01:41:37.841Z,1.00
2018-12-15T01:46:40.437Z,1.00
2018-12-15T01:51:42.989Z,1.00
2018-12-15T01:56:45.626Z,0.90
2018-12-15T02:01:48.286Z,1.10
2018-12-15T02:06:50.829Z,1.00
2018-12-15T02:11:53.434Z,1.00
2018-12-15T02:16:56.009Z,1.00
2018-12-15T02:21:58.506Z,0.80
2018-12-15T02:27:00.998Z,1.00
2018-12-15T02:32:03.487Z,1.10
2018-12-15T02:37:05.974Z,1.00
2018-12-15T02:42:08.482Z,1.10
2018-12-15T02:47:10.961Z,1.00
2018-12-15T02:52:13.879Z,1.00
2018-12-15T02:57:16.372Z,1.00
2018-12-15T03:02:18.944Z,1.10
2018-12-15T03:07:21.961Z,1.00
2018-12-15T03:12:24.670Z,1.00
2018-12-15T03:17:27.461Z,1.00
2018-12-15T03:22:29.945Z,0.90
2018-12-15T03:27:32.540Z,0.90
2018-12-15T03:32:35.046Z,0.90
2018-12-15T03:37:37.514Z,0.90
2018-12-15T03:42:40.533Z,0.80
2018-12-15T03:47:42.998Z,0.80
2018-12-15T03:52:45.538Z,0.90
2018-12-15T03:57:48.023Z,0.90
2018-12-15T04:02:51.027Z,0.90
2018-12-15T04:07:53.514Z,0.90
2018-12-15T04:12:56.218Z,0.80
2018-12-15T04:18:03.727Z,0.80
2018-12-15T04:23:03.195Z,0.80
2018-12-15T04:28:05.945Z,0.80
2018-12-15T04:33:08.428Z,0.80
2018-12-15T04:38:10.902Z,0.70
2018-12-15T04:43:13.434Z,0.80
2018-12-15T04:48:15.922Z,0.80
2018-12-15T04:53:18.618Z,0.70
2018-12-15T04:58:21.117Z,0.80
2018-12-15T05:03:23.705Z,0.80
2018-12-15T05:08:26.500Z,0.70
2018-12-15T05:13:29.414Z,0.70
2018-12-15T05:18:31.897Z,0.70
2018-12-15T05:23:35.123Z,0.70
2018-12-15T05:28:37.813Z,0.70
2018-12-15T05:33:40.305Z,0.70
2018-12-15T05:38:42.797Z,0.70
2018-12-15T05:43:45.252Z,0.70
2018-12-15T05:48:48.074Z,0.80
2018-12-15T05:53:50.640Z,0.70
2018-12-15T05:58:53.178Z,0.70
2018-12-15T06:03:55.682Z,0.60
2018-12-15T06:08:58.158Z,0.60
2018-12-15T06:14:01.281Z,0.60
2018-12-15T06:19:03.790Z,0.60
2018-12-15T06:24:06.464Z,0.70
2018-12-15T06:29:08.966Z,0.70
2018-12-15T06:34:11.442Z,0.70
2018-12-15T06:39:13.952Z,0.70
2018-12-15T06:44:16.546Z,0.70
2018-12-15T06:49:19.087Z,0.70
2018-12-15T06:54:21.528Z,0.80
2018-12-15T06:59:24.502Z,0.80
2018-12-15T07:04:27.440Z,0.80
2018-12-15T07:09:29.933Z,0.70
2018-12-15T07:14:32.525Z,0.80
2018-12-15T07:19:35.028Z,0.80
2018-12-15T07:24:37.613Z,0.80
2018-12-15T07:29:40.307Z,0.80
2018-12-15T07:34:43.625Z,0.80
2018-12-15T07:39:46.206Z,0.90
2018-12-15T07:44:48.707Z,0.80
2018-12-15T07:49:51.220Z,0.80
2018-12-15T07:54:53.795Z,0.80
2018-12-15T07:59:56.294Z,0.90
2018-12-15T08:04:58.894Z,0.90
2018-12-15T08:10:03.302Z,0.90
2018-12-15T08:15:06.928Z,0.90
2018-12-15T08:20:09.636Z,1.00
2018-12-15T08:25:12.228Z,1.00
2018-12-15T08:30:14.824Z,1.10
2018-12-15T08:35:17.329Z,1.20
2018-12-15T08:40:19.939Z,1.00
2018-12-15T08:45:22.505Z,1.10
2018-12-15T08:50:25.000Z,1.10
2018-12-15T08:55:27.806Z,1.10
2018-12-15T09:00:30.298Z,1.10
2018-12-15T09:05:32.803Z,1.20
2018-12-15T09:10:35.477Z,1.20
2018-12-15T09:15:38.080Z,1.30
2018-12-15T09:20:41.329Z,1.30
2018-12-15T09:25:43.881Z,1.30
2018-12-15T09:30:46.480Z,1.40
2018-12-15T09:35:49.070Z,1.40
2018-12-15T09:40:51.573Z,1.50
2018-12-15T09:45:54.073Z,1.40
2018-12-15T09:50:56.558Z,1.40
2018-12-15T09:55:59.061Z,1.50
2018-12-15T10:01:01.542Z,1.50
2018-12-15T10:06:04.151Z,1.50
2018-12-15T10:11:06.765Z,1.50
2018-12-15T10:16:09.274Z,1.60
2018-12-15T10:21:11.820Z,1.50
2018-12-15T10:26:14.314Z,1.50
2018-12-15T10:31:22.451Z,1.50
2018-12-15T10:36:24.990Z,1.70
2018-12-15T10:41:27.522Z,1.70
2018-12-15T10:46:30.120Z,1.70
2018-12-15T10:51:32.890Z,1.70
2018-12-15T10:56:35.416Z,1.60
2018-12-15T11:01:37.876Z,1.60
2018-12-15T11:06:40.405Z,1.70
2018-12-15T11:11:42.916Z,1.70
2018-12-15T11:16:45.372Z,1.70
2018-12-15T11:21:47.874Z,1.70
2018-12-15T11:26:50.638Z,1.80
2018-12-15T11:31:53.485Z,1.90
2018-12-15T11:36:56.066Z,1.70
2018-12-15T11:41:58.673Z,1.60
2018-12-15T11:47:01.277Z,1.60
2018-12-15T11:52:04.291Z,1.50
2018-12-15T11:57:06.886Z,1.40
2018-12-15T12:02:09.469Z,1.50
2018-12-15T12:07:12.894Z,1.50
2018-12-15T12:12:15.476Z,1.50
2018-12-15T12:17:17.968Z,1.40
2018-12-15T12:22:20.726Z,1.40
2018-12-15T12:27:23.192Z,1.50
2018-12-15T12:32:25.661Z,1.40
2018-12-15T12:37:28.213Z,1.40
2018-12-15T12:42:31.664Z,1.50
2018-12-15T12:47:35.081Z,1.50
2018-12-15T12:52:43.406Z,1.50
2018-12-15T12:57:45.907Z,1.30
2018-12-15T13:02:48.670Z,1.30
2018-12-15T13:07:51.201Z,1.40
2018-12-15T13:12:53.657Z,1.40
2018-12-15T13:17:56.238Z,1.30
2018-12-15T13:22:58.786Z,1.20
2018-12-15T13:28:01.295Z,1.20
2018-12-15T13:33:07.649Z,1.10
2018-12-15T13:38:10.310Z,1.00
2018-12-15T13:43:12.846Z,1.00
2018-12-15T13:48:15.339Z,1.00
2018-12-15T13:53:19.297Z,1.10
2018-12-15T13:58:21.981Z,1.00
2018-12-15T14:03:24.469Z,1.00
2018-12-15T14:08:26.995Z,1.00
2018-12-15T14:13:29.476Z,0.80
2018-12-15T14:18:32.115Z,0.80
2018-12-15T14:23:34.630Z,0.80
2018-12-15T14:28:37.238Z,0.80
2018-12-15T14:33:39.956Z,0.90
2018-12-15T14:38:42.527Z,0.90
2018-12-15T14:43:45.071Z,0.80
2018-12-15T14:48:47.722Z,0.70
2018-12-15T14:53:50.882Z,0.80
2018-12-15T14:58:54.290Z,0.70
2018-12-15T15:03:57.035Z,0.70
2018-12-15T15:08:59.517Z,0.70
2018-12-15T15:14:02.010Z,0.70
2018-12-15T15:19:04.608Z,0.70
2018-12-15T15:24:07.546Z,0.60
2018-12-15T15:29:10.170Z,0.70
2018-12-15T15:34:12.810Z,0.60
2018-12-15T15:39:15.307Z,0.60
2018-12-15T15:44:17.854Z,0.50
2018-12-15T15:49:20.333Z,0.60
2018-12-15T15:54:22.886Z,0.50
2018-12-15T15:59:25.352Z,0.60
2018-12-15T16:04:27.877Z,0.60
2018-12-15T16:09:30.472Z,0.50
2018-12-15T16:14:33.067Z,0.50
2018-12-15T16:19:35.519Z,0.50
2018-12-15T16:24:38.057Z,0.50
2018-12-15T16:29:40.760Z,0.50
2018-12-15T16:34:43.304Z,0.40
2018-12-15T16:39:45.840Z,0.30
2018-12-15T16:44:48.639Z,0.30
2018-12-15T16:49:51.129Z,0.10
2018-12-15T16:54:53.846Z,-0.10
2018-12-15T16:59:56.318Z,0.00
2018-12-15T17:04:58.815Z,-0.20
2018-12-15T17:10:01.320Z,-0.20
2018-12-15T17:15:05.401Z,-0.20
2018-12-15T17:20:09.563Z,-0.30
2018-12-15T17:25:12.204Z,-0.30
2018-12-15T17:30:14.664Z,-0.40
2018-12-15T17:35:17.240Z,-0.50
2018-12-15T17:40:19.761Z,-0.50
2018-12-15T17:45:22.762Z,-0.60
2018-12-15T17:50:25.240Z,-0.60
2018-12-15T17:55:27.861Z,-0.70
2018-12-15T18:00:30.346Z,-0.80
2018-12-15T18:05:33.042Z,-0.80
2018-12-15T18:10:35.738Z,-0.90
2018-12-15T18:15:38.221Z,-0.90
2018-12-15T18:20:40.725Z,-0.90
2018-12-15T18:25:43.214Z,-0.80
2018-12-15T18:30:45.685Z,-0.90
2018-12-15T18:35:48.307Z,-0.90
2018-12-15T18:40:50.993Z,-0.70
2018-12-15T18:45:53.477Z,-0.70
2018-12-15T18:50:55.986Z,-0.70
2018-12-15T18:55:58.566Z,-0.90
2018-12-15T19:01:01.039Z,-0.90
2018-12-15T19:06:03.621Z,-1.00
2018-12-15T19:11:06.506Z,-1.10
2018-12-15T19:16:09.073Z,-1.10
2018-12-15T19:21:11.565Z,-1.10
2018-12-15T19:26:14.040Z,-1.10
2018-12-15T19:31:16.548Z,-1.10
2018-12-15T19:36:19.033Z,-1.20
2018-12-15T19:41:21.632Z,-1.20
2018-12-15T19:46:24.092Z,-1.30
2018-12-15T19:51:29.583Z,-1.30
2018-12-15T19:56:31.078Z,-1.40
2018-12-15T20:01:33.641Z,-1.40
2018-12-15T20:06:36.141Z,-1.40
2018-12-15T20:11:38.650Z,-1.50
2018-12-15T20:16:41.393Z,-1.50
2018-12-15T20:21:43.882Z,-1.50
2018-12-15T20:26:46.422Z,-1.60
2018-12-15T20:31:48.918Z,-1.60
2018-12-15T20:36:51.527Z,-1.60
2018-12-15T20:41:54.314Z,-1.60
2018-12-15T20:46:57.015Z,-1.50
2018-12-15T20:51:59.478Z,-1.60
2018-12-15T20:57:02.010Z,-1.70
2018-12-15T21:02:04.498Z,-1.70
2018-12-15T21:07:06.979Z,-1.80
2018-12-15T21:12:10.194Z,-1.80
2018-12-15T21:17:12.696Z,-1.90
2018-12-15T21:22:15.385Z,-1.90
2018-12-15T21:27:17.864Z,-1.90
2018-12-15T21:32:20.377Z,-2.00
2018-12-15T21:37:23.065Z,-2.00
2018-12-15T21:42:25.649Z,-2.00
2018-12-15T21:47:28.876Z,-2.10
2018-12-15T21:52:31.360Z,-2.10
2018-12-15T21:57:33.861Z,-2.00
2018-12-15T22:02:36.362Z,-2.10
2018-12-15T22:07:39.047Z,-2.10
2018-12-15T22:12:41.566Z,-2.10
2018-12-15T22:17:44.350Z,-2.00
2018-12-15T22:22:47.032Z,-2.10
2018-12-15T22:27:49.846Z,-2.10
2018-12-15T22:32:52.337Z,-2.00
2018-12-15T22:37:54.830Z,-2.10
2018-12-15T22:42:57.314Z,-2.10
2018-12-15T22:47:59.812Z,-2.10
2018-12-15T22:53:02.309Z,-2.10
2018-12-15T22:58:04.957Z,-2.10
2018-12-15T23:03:08.215Z,-2.10
2018-12-15T23:08:10.713Z,-2.10
2018-12-15T23:13:13.225Z,-2.00
2018-12-15T23:18:15.812Z,-2.00
2018-12-15T23:23:18.418Z,-1.90
2018-12-15T23:28:20.995Z,-1.80
2018-12-15T23:33:23.576Z,-1.70
2018-12-15T23:38:26.077Z,-1.70
2018-12-15T23:43:28.588Z,-1.70
2018-12-15T23:48:31.160Z,-1.70
2018-12-15T23:53:33.650Z,-1.60
2018-12-15T23:58:36.126Z,-1.60
